Ty Woods — WDB5332 — position and weather

sailwx.info

Track history (hours):
 
Tides and Currents Weather Stations Pressure Air Temp Water Temp Dewpoint Dewpoint Depression Visibility Wind Speed Wind Dir Waves Ship Positions

Ty Woods

Owner: San Diego Towing & Marine Services,Inc., San Diego, CA. More information available from US FCC via Universal Licensing System and Coast Guard Vessel Documentation Center.

Last reported at 2016-Dec-09 04:09 UTC. Time now 2016-Dec-09 23:22 UTC.
Position N 32°42' W 117°09'.

; draft 2 m.

Type: Ship. MMSI: 366908460.

Date/timePositionNaut miles runAvg speedWind from/ knotsBaromVisibWave heightAir tempDewpointWater temp
2016-Dec-09 04:09N 32°42' W 117°09'4 7.3
2016-Dec-09 03:33N 32°42' W 117°14'9 8.4
2016-Dec-09 02:31N 32°34' W 117°17'3 1.5
2016-Dec-09 00:27N 32°36' W 117°15'7 8.1
2016-Dec-08 23:33N 32°42' W 117°09'  
2016-Nov-30 13:30N 32°42' W 117°09'8 8.4
2016-Nov-30 12:33N 32°42' W 117°18'1818.2
2016-Nov-30 11:33N 32°59' W 117°24'8 8.4
2016-Nov-30 10:33N 32°51' W 117°23'1211.7
2016-Nov-30 09:33N 32°42' W 117°14'4 0.3
2016-Nov-29 21:33N 32°42' W 117°09'0 0.0
2016-Nov-29 20:33N 32°42' W 117°09'0 0.0
2016-Nov-29 19:33N 32°42' W 117°09'0 0.0
2016-Nov-29 18:32N 32°42' W 117°09'0 0.0
2016-Nov-29 17:32N 32°42' W 117°09'0 0.0
2016-Nov-29 16:33N 32°42' W 117°09'0 0.0
2016-Nov-29 15:29N 32°42' W 117°09'0 0.0
2016-Nov-29 14:33N 32°42' W 117°09'0 0.0
2016-Nov-29 13:33N 32°42' W 117°09'0 0.0
2016-Nov-29 12:32N 32°42' W 117°09'0 0.0
2016-Nov-29 11:05N 32°42' W 117°09'0 0.0
2016-Nov-29 10:28N 32°42' W 117°09'0 0.0
2016-Nov-29 08:26N 32°42' W 117°09'0 0.0
2016-Nov-29 07:33N 32°42' W 117°09'0 0.0
2016-Nov-29 06:33N 32°42' W 117°09'0 0.0
2016-Nov-29 05:33N 32°42' W 117°09'0 0.0
2016-Nov-29 04:33N 32°42' W 117°09'  
Track history (hours):
 
Tides and Currents Weather Stations Pressure Air Temp Water Temp Dewpoint Dewpoint Depression Visibility Wind Speed Wind Dir Waves Ship Positions

Ty Woods

Owner: San Diego Towing & Marine Services,Inc., San Diego, CA. More information available from US FCC via Universal Licensing System and Coast Guard Vessel Documentation Center.

Last reported at 2016-Dec-09 04:09 UTC. Time now 2016-Dec-09 23:22 UTC.
Position N 32°42' W 117°09'.

; draft 2 m.

Type: Ship. MMSI: 366908460.

Date/timePositionNaut miles runAvg speedWind from/ knotsBaromVisibWave heightAir tempDewpointWater temp
2016-Dec-09 04:09N 32°42' W 117°09'4 7.3
2016-Dec-09 03:33N 32°42' W 117°14'9 8.4
2016-Dec-09 02:31N 32°34' W 117°17'3 1.5
2016-Dec-09 00:27N 32°36' W 117°15'7 8.1
2016-Dec-08 23:33N 32°42' W 117°09'  
2016-Nov-30 13:30N 32°42' W 117°09'8 8.4
2016-Nov-30 12:33N 32°42' W 117°18'1818.2
2016-Nov-30 11:33N 32°59' W 117°24'8 8.4
2016-Nov-30 10:33N 32°51' W 117°23'1211.7
2016-Nov-30 09:33N 32°42' W 117°14'4 0.3
2016-Nov-29 21:33N 32°42' W 117°09'0 0.0
2016-Nov-29 20:33N 32°42' W 117°09'0 0.0
2016-Nov-29 19:33N 32°42' W 117°09'0 0.0
2016-Nov-29 18:32N 32°42' W 117°09'0 0.0
2016-Nov-29 17:32N 32°42' W 117°09'0 0.0
2016-Nov-29 16:33N 32°42' W 117°09'0 0.0
2016-Nov-29 15:29N 32°42' W 117°09'0 0.0
2016-Nov-29 14:33N 32°42' W 117°09'0 0.0
2016-Nov-29 13:33N 32°42' W 117°09'0 0.0
2016-Nov-29 12:32N 32°42' W 117°09'0 0.0
2016-Nov-29 11:05N 32°42' W 117°09'0 0.0
2016-Nov-29 10:28N 32°42' W 117°09'0 0.0
2016-Nov-29 08:26N 32°42' W 117°09'0 0.0
2016-Nov-29 07:33N 32°42' W 117°09'0 0.0
2016-Nov-29 06:33N 32°42' W 117°09'0 0.0
2016-Nov-29 05:33N 32°42' W 117°09'0 0.0
2016-Nov-29 04:33N 32°42' W 117°09'  

Dump ship's entire track history